• Join FlightAware (Why Join?)
  • Login
  • US Flag 
11:08PM EDT


 

Airport Tracker/Info


-or-


 

Live Flight TrackerFlight Track Log ✈ N121JM ✈ 22-Nov-2013 ✈ KTEB - KVNY

Flight Track Log - Related Links

Times and Time Zones

All times are in EST time to prevent confusion due to time zone crossing. See the N121JM flight status page for this flight to view local times or setup timezone preferences in your user account.

Time Position Orientation Groundspeed Altitude Reporting Facility
EST Latitude Longitude Course Direction KTS MPH feet Rate Location/Type
05:29PM 40.8483 -74.0678 360° North 151 174 100  Level FlightAware ADS-B
05:30PM 40.8394 -74.0797 225° Southwest 155 178 700 1,800 Climbing FlightAware ADS-B
05:30PM 40.8357 -74.0849 227° Southwest 147 169 900 1,500 Climbing FlightAware ADS-B
05:30PM 40.8323 -74.0900 229° Southwest 150 173 1,100 1,380 Climbing FlightAware ADS-B
05:30PM 40.8302 -74.0936 232° Southwest 151 174 1,200 660 Climbing FlightAware ADS-B
05:30PM 40.8285 -74.0972 238° Southwest 153 176 1,200 720 Level FlightAware ADS-B
05:30PM 40.8273 -74.1007 246° West 157 181 1,300 840 Climbing FlightAware ADS-B
05:30PM 40.8265 -74.1034 249° West 159 183 1,300  Level FlightAware ADS-B
05:30PM 40.8252 -74.1077 248° West 165 190 1,300 420 Level FlightAware ADS-B
05:31PM 40.8151 -74.1483 252° West 166 191 1,600 540 Climbing FlightAware ADS-B
05:31PM 40.8140 -74.1548 257° West 195 224 1,700 1,080 Climbing FlightAware ADS-B
05:31PM 40.8127 -74.1665 262° West 194 223 1,900 1,260 Climbing FlightAware ADS-B
05:31PM 40.8123 -74.1712 264° West 195 224 2,000 2,100 Climbing FlightAware ADS-B
05:31PM 40.8116 -74.1908 267° West 196 226 2,600 2,520 Climbing FlightAware ADS-B
05:32PM 40.8117 -74.2112 270° West 201 231 3,400 2,640 Climbing FlightAware ADS-B
05:32PM 40.8123 -74.2443 271° West 217 250 4,500 2,400 Climbing FlightAware ADS-B
05:32PM 40.8116 -74.2681 268° West 228 262 5,200 2,580 Climbing FlightAware ADS-B
05:33PM 40.8120 -74.3159 271° West 237 273 6,700 2,640 Climbing FlightAware ADS-B
05:33PM 40.8117 -74.3398 269° West 237 273 7,400 2,760 Climbing FlightAware ADS-B
05:33PM 40.8111 -74.3549 267° West 249 287 7,900 2,160 Climbing FlightAware ADS-B
05:35PM 40.8127 -74.5377 271° West 305 351 11,700 1,680 Climbing FlightAware ADS-B (KWWD)
05:39PM 40.8952 -74.8914 287° West 329 379 17,000 1,320 Climbing FlightAware ADS-B (KWWD)
05:39PM 40.8721 -74.9524 243° Southwest 335 386 17,200 1,380 Climbing FlightAware ADS-B (KWWD)
05:41PM 40.8119 -75.1031 242° Southwest 339 390 19,700 1,680 Climbing FlightAware ADS-B (KWWD)
05:41PM 40.7924 -75.1682 248° West 338 389 20,500 1,500 Climbing FlightAware ADS-B (KWWD)
05:42PM 40.7882 -75.1967 259° West 341 392 20,900 1,620 Climbing FlightAware ADS-B (KWWD)
05:42PM 40.7825 -75.2579 263° West 342 394 21,700 1,440 Climbing FlightAware ADS-B (KWWD)
05:44PM 40.7007 -75.5557 250° West 372 428 25,200 1,380 Climbing FlightAware ADS-B (KWWD)
05:45PM 40.6626 -75.6586 244° Southwest 375 432 26,400 1,440 Climbing FlightAware ADS-B (KWWD)
05:47PM 40.5614 -75.9247 243° Southwest 375 432 29,700 1,500 Climbing FlightAware ADS-B (KWWD)
05:48PM 40.5348 -75.9944 243° Southwest 373 429 30,500 1,440 Climbing FlightAware ADS-B (KWWD)
05:49PM 40.5093 -76.0618 244° Southwest 372 428 31,300 1,440 Climbing FlightAware ADS-B (KWWD)
05:51PM 40.4538 -76.2071 243° Southwest 367 422 34,200 1,440 Climbing FlightAware ADS-B (KAPG)
05:51PM 40.3793 -76.4007 243° Southwest 360 414 35,500 1,320 Climbing FlightAware ADS-B (KWWD)
05:52PM 40.3550 -76.4636 243° Southwest 359 413 36,200 1,200 Climbing FlightAware ADS-B (KWWD)
05:52PM 40.3334 -76.5220 244° Southwest 355 409 36,800 1,140 Climbing FlightAware ADS-B (KWWD)
05:53PM 40.3265 -76.5472 250° West 347 399 37,000 1,260 Climbing FlightAware ADS-B (KWWD)
05:53PM 40.3183 -76.5939 257° West 344 396 37,700 960 Climbing FlightAware ADS-B (KAPG)
05:54PM 40.3159 -76.6660 267° West 342 394 38,300 720 Climbing FlightAware ADS-B (KAPG)
05:55PM 40.3179 -76.7783 271° West 340 391 38,900 780 Climbing FlightAware ADS-B (KAPG)
05:55PM 40.3194 -76.8529 271° West 334 384 39,400 720 Climbing FlightAware ADS-B (KAPG)
05:56PM 40.3209 -76.9329 271° West 326 375 40,000 360 Climbing FlightAware ADS-B (KAPG)
05:57PM 40.3231 -77.0558 271° West 328 377 40,000  Level FlightAware ADS-B (KWWD)
05:57PM 40.3242 -77.1144 271° West 328 377 40,000  Level FlightAware ADS-B (KWWD)
05:58PM 40.3247 -77.1417 271° West 328 377 40,000  Level FlightAware ADS-B (KAPG)
05:58PM 40.3251 -77.1667 271° West 327 376 40,000  Level FlightAware ADS-B (KWWD)
05:59PM 40.3272 -77.2796 271° West 328 377 40,000  Level FlightAware ADS-B (KAPG)
06:00PM 40.3302 -77.4696 271° West 325 374 40,000  Level FlightAware ADS-B (KWWD)
06:01PM 40.3313 -77.5483 271° West 324 373 40,000  Level FlightAware ADS-B (KWWD)
06:02PM 40.3322 -77.6078 271° West 328 377 40,000  Level FlightAware ADS-B (KWWD)
06:02PM 40.3331 -77.6684 271° West 327 376 40,000  Level FlightAware ADS-B (KWWD)
06:05PM 40.3364 -77.9625 271° West 327 376 40,000  Level FlightAware ADS-B (KWWD)
06:05PM 40.3369 -78.0215 271° West 328 377 40,000  Level FlightAware ADS-B (KWWD)
06:06PM 40.3376 -78.1071 271° West 328 377 40,000  Level FlightAware ADS-B (KWWD)
06:07PM 40.3385 -78.1995 271° West 325 374 40,000  Level FlightAware ADS-B (KWWD)
06:09PM 40.3404 -78.5455 271° West 325 374 40,000  Level FlightAware ADS-B (KWWD)
06:11PM 40.3411 -78.7202 270° West 332 382 40,000  Level FlightAware ADS-B (KWWD)
06:12PM 40.3414 -78.8011 270° West 331 381 40,000  Level Cleveland Center
06:17PM 40.3419 -79.4532 270° West 332 382 40,000  Level FlightAware ADS-B (KWWD)
06:23PM 40.3381 -80.1213 270° West 334 384 40,000  Level FlightAware ADS-B
06:23PM 40.3400 -80.1672 270° West 331 381 40,000  Level Cleveland Center
06:24PM 40.3372 -80.3128 269° West 335 386 40,000  Level Cleveland Center
06:25PM 40.3356 -80.4186 269° West 337 388 40,000  Level Cleveland Center
06:26PM 40.3347 -80.5392 270° West 332 382 40,000  Level Cleveland Center
06:27PM 40.3319 -80.6847 269° West 332 382 40,000  Level Cleveland Center
06:28PM 40.3306 -80.8061 269° West 334 384 40,000  Level Cleveland Center
06:29PM 40.3286 -80.9267 269° West 332 382 40,000  Level Cleveland Center
06:30PM 40.3275 -81.0469 269° West 332 382 40,000  Level Cleveland Center
06:31PM 40.3247 -81.1681 268° West 333 383 40,000  Level Cleveland Center
06:32PM 40.3228 -81.2294 268° West 333 383 40,000  Level Indianapolis Center
06:33PM 40.3206 -81.3722 269° West 333 383 40,000  Level Indianapolis Center
06:34PM 40.3181 -81.4933 268° West 331 381 40,000  Level Indianapolis Center
06:35PM 40.3158 -81.6139 269° West 329 379 40,000  Level Indianapolis Center
06:36PM 40.3125 -81.7367 268° West 333 383 40,000  Level Indianapolis Center
06:37PM 40.3106 -81.8600 269° West 335 386 40,000  Level Indianapolis Center
06:38PM 40.3075 -81.9819 268° West 333 383 40,000  Level Indianapolis Center
06:39PM 40.3042 -82.1031 268° West 331 381 40,000  Level Indianapolis Center
06:40PM 40.3014 -82.2258 268° West 332 382 40,000  Level Indianapolis Center
06:41PM 40.2969 -82.3661 268° West 329 379 40,000  Level Indianapolis Center
06:42PM 40.2942 -82.4881 268° West 331 381 40,000  Level Indianapolis Center
06:43PM 40.2897 -82.6106 267° West 332 382 40,000  Level Indianapolis Center
06:44PM 40.2856 -82.7317 267° West 331 381 40,000  Level Indianapolis Center
06:45PM 40.2828 -82.8614 268° West 331 381 40,000  Level Indianapolis Center
06:46PM 40.2783 -82.9833 267° West 335 386 40,000  Level Indianapolis Center
06:47PM 40.2744 -83.1039 268° West 335 386 40,000  Level Indianapolis Center
06:48PM 40.2708 -83.2250 268° West 336 387 40,000  Level Indianapolis Center
06:50PM 40.2658 -83.3467 267° West 337 388 40,000  Level Indianapolis Center
06:51PM 40.2611 -83.4919 268° West 337 388 40,000  Level Indianapolis Center
06:52PM 40.2564 -83.6133 267° West 337 388 40,000 -480 Level Indianapolis Center
06:53PM 40.2517 -83.7344 267° West 336 387 39,100 -960 Descending Indianapolis Center
06:54PM 40.2467 -83.8586 267° West 342 394 38,100 -540 Descending Indianapolis Center
06:55PM 40.2417 -83.9825 267° West 344 396 38,000 -60 Descending Indianapolis Center
06:56PM 40.2342 -84.1317 266° West 344 396 38,000  Level Indianapolis Center
06:57PM 40.2297 -84.2569 267° West 346 398 38,000  Level Indianapolis Center
06:58PM 40.2242 -84.3817 267° West 344 396 38,000  Level Indianapolis Center
06:59PM 40.2183 -84.5081 267° West 349 402 38,000  Level Indianapolis Center
07:00PM 40.2125 -84.6325 267° West 344 396 38,000  Level Indianapolis Center
07:01PM 40.2047 -84.7822 266° West 345 397 38,000  Level Indianapolis Center
07:02PM 40.1983 -84.9092 266° West 344 396 38,000  Level Indianapolis Center
07:04PM 40.1897 -85.1119 267° West 344 396 38,000  Level Kansas City Center
07:05PM 40.1828 -85.2358 266° West 344 396 38,000  Level Kansas City Center
07:06PM 40.1764 -85.3603 266° West 343 395 38,000  Level Kansas City Center
07:07PM 40.1689 -85.4839 265° West 342 394 38,000  Level Kansas City Center
07:08PM 40.1608 -85.6317 266° West 340 391 38,000  Level Kansas City Center
07:09PM 40.1539 -85.7522 266° West 334 384 38,000  Level Kansas City Center
07:09PM 40.1497 -85.8156 265° West 337 388 38,000  Level Indianapolis Center
07:10PM 40.1433 -85.9369 266° West 338 389 38,000  Level Indianapolis Center
07:11PM 40.1358 -86.0583 265° West 339 390 38,000  Level Indianapolis Center
07:12PM 40.1275 -86.2028 266° West 337 388 38,000 300 Level Indianapolis Center
07:13PM 40.1192 -86.3225 265° West 336 387 38,700 720 Climbing Indianapolis Center
07:15PM 40.1128 -86.4419 266° West 334 384 39,500 600 Climbing Indianapolis Center
07:16PM 40.1097 -86.5600 268° West 331 381 40,000 240 Climbing Indianapolis Center
07:17PM 40.1058 -86.6831 268° West 339 390 40,000  Level Indianapolis Center
07:18PM 40.1022 -86.8053 268° West 340 391 40,000  Level Indianapolis Center
07:21PM 40.0878 -87.2051 268° West 346 398 40,000  Level FlightAware ADS-B
07:22PM 40.0833 -87.3253 268° West 342 394 40,000  Level Indianapolis Center
07:23PM 40.0792 -87.4500 268° West 343 395 40,000  Level Indianapolis Center
07:24PM 40.0739 -87.5717 267° West 340 391 40,000  Level Indianapolis Center
07:29PM 40.0470 -88.2026 267° West 345 397 40,000  Level FlightAware ADS-B
07:32PM 40.0279 -88.6096 267° West 350 403 40,000  Level FlightAware ADS-B
07:32PM 40.0248 -88.6738 266° West 349 402 40,000  Level FlightAware ADS-B
07:33PM 40.0194 -88.7848 266° West 346 398 40,000  Level FlightAware ADS-B
07:35PM 40.0122 -88.9369 266° West 344 396 40,000  Level Indianapolis Center
07:36PM 40.0053 -89.0589 266° West 341 392 40,000  Level Indianapolis Center
07:41PM 39.9725 -89.6625 266° West 332 382 40,000  Level FlightAware ADS-B
07:43PM 39.9550 -89.9534 266° West 334 384 40,000  Level FlightAware ADS-B
07:46PM 39.9398 -90.2006 265° West 336 387 40,000  Level FlightAware ADS-B
07:46PM 39.9319 -90.3342 265° West 336 387 40,000  Level Kansas City Center
07:47PM 39.9236 -90.4558 265° West 337 388 40,000  Level Kansas City Center
07:48PM 39.9144 -90.6011 265° West 336 387 40,000  Level Kansas City Center
07:52PM 39.9130 -90.6168 265° West 335 386 40,000  Level FlightAware ADS-B
07:52PM 39.8825 -91.0772 265° West 339 390 40,000  Level Chicago Center
07:54PM 39.8714 -91.2181 264° West 334 384 40,000  Level Kansas City Center
07:55PM 39.8633 -91.3392 265° West 335 386 40,000  Level Kansas City Center
07:56PM 39.8547 -91.4603 265° West 337 388 40,000  Level Kansas City Center
07:57PM 39.8456 -91.5822 264° West 339 390 40,000  Level Kansas City Center
07:58PM 39.8356 -91.7031 264° West 338 389 40,000  Level Kansas City Center
07:59PM 39.8242 -91.8483 264° West 339 390 40,000  Level Kansas City Center
08:00PM 39.8156 -91.9683 265° West 335 386 40,000  Level Kansas City Center
08:01PM 39.8061 -92.0878 264° West 333 383 40,000  Level Kansas City Center
08:02PM 39.7972 -92.2067 264° West 332 382 40,000  Level Kansas City Center
08:03PM 39.7864 -92.3278 263° West 334 384 40,000  Level Kansas City Center
08:04PM 39.7775 -92.4472 265° West 333 383 40,000  Level Kansas City Center
08:05PM 39.7678 -92.5653 264° West 332 382 40,000  Level Kansas City Center
08:06PM 39.7558 -92.7086 264° West 331 381 40,000  Level Kansas City Center
08:07PM 39.7456 -92.8269 264° West 330 380 40,000  Level Kansas City Center
08:08PM 39.7356 -92.9442 264° West 330 380 40,000  Level Kansas City Center
08:09PM 39.7253 -93.0633 264° West 331 381 40,000  Level Kansas City Center
08:10PM 39.7125 -93.1800 262° West 328 377 40,000  Level Kansas City Center
08:11PM 39.7036 -93.2986 264° West 330 380 40,000  Level Kansas City Center
08:12PM 39.6911 -93.4414 264° West 332 382 40,000  Level Kansas City Center
08:13PM 39.6811 -93.5608 264° West 334 384 40,000  Level Kansas City Center
08:14PM 39.6711 -93.6772 264° West 330 380 40,000  Level Kansas City Center
08:15PM 39.6597 -93.8064 264° West 327 376 40,000  Level Kansas City Center
08:16PM 39.6481 -93.9189 262° West 331 381 40,000  Level Kansas City Center
08:22PM 39.5818 -94.5891 262° West 330 380 40,000  Level FlightAware ADS-B
08:22PM 39.5764 -94.6500 262° West 328 377 40,000  Level Kansas City Center
08:23PM 39.5647 -94.7631 262° West 331 381 40,000 120 Level Kansas City Center
08:24PM 39.5511 -94.8931 262° West 327 376 40,300 420 Climbing Kansas City Center
08:25PM 39.5392 -95.0042 262° West 328 377 40,900 300 Climbing Kansas City Center
08:27PM 39.5264 -95.1344 263° West 330 380 41,000  Climbing Kansas City Center
08:28PM 39.5131 -95.2614 262° West 340 391 41,000  Level Kansas City Center
08:29PM 39.4994 -95.3867 262° West 338 389 41,000  Level Kansas City Center
08:30PM 39.4883 -95.4972 263° West 332 382 41,000  Level Kansas City Center
08:36PM 39.4007 -96.2614 263° West 336 387 41,000  Level FlightAware ADS-B
08:37PM 39.3812 -96.4291 261° West 335 386 41,000  Level FlightAware ADS-B
08:38PM 39.3758 -96.4755 261° West 333 383 41,000  Level FlightAware ADS-B
08:38PM 39.3661 -96.5576 261° West 330 380 41,000  Level FlightAware ADS-B
08:39PM 39.3657 -96.5615 262° West 330 380 41,000  Level FlightAware ADS-B
08:40PM 39.3555 -96.6468 261° West 330 380 41,000  Level FlightAware ADS-B
08:41PM 39.3329 -96.8342 261° West 331 381 41,000  Level FlightAware ADS-B
08:42PM 39.3241 -96.9063 261° West 332 382 41,000  Level FlightAware ADS-B
08:45PM 39.2731 -97.3229 261° West 334 384 41,000  Level FlightAware ADS-B
08:46PM 39.2561 -97.4489 261° West 332 382 41,000  Level Kansas City Center
08:47PM 39.2428 -97.5589 261° West 335 386 41,000  Level Kansas City Center
08:48PM 39.2258 -97.6933 261° West 329 379 41,000  Level Kansas City Center
08:49PM 39.2117 -97.8061 261° West 333 383 41,000  Level Kansas City Center
08:50PM 39.1961 -97.9233 260° West 332 382 41,000  Level Kansas City Center
08:51PM 39.1808 -98.0408 261° West 332 382 41,000  Level Kansas City Center
08:58PM 39.0776 -98.8018 261° West 340 391 41,000  Level FlightAware ADS-B
08:58PM 39.0717 -98.8408 261° West 339 390 41,000  Level Denver Center
08:59PM 39.0647 -98.8972 261° West 338 389 41,000  Level Kansas City Center
09:00PM 39.0442 -99.0403 260° West 339 390 41,000  Level Kansas City Center
09:01PM 39.0281 -99.1600 260° West 341 392 41,000  Level Kansas City Center
09:02PM 39.0119 -99.2789 260° West 338 389 41,000  Level Kansas City Center
09:03PM 38.9931 -99.4008 259° West 345 397 41,000  Level Kansas City Center
09:04PM 38.9756 -99.5214 259° West 345 397 41,000  Level Kansas City Center
09:05PM 38.9572 -99.6519 260° West 344 396 41,000  Level Kansas City Center
09:06PM 38.9372 -99.7864 259° West 344 396 41,000  Level Kansas City Center
09:07PM 38.9192 -99.9022 259° West 345 397 41,000  Level Kansas City Center
09:08PM 38.9025 -100.0192 260° West 346 398 41,000  Level Kansas City Center
09:09PM 38.8822 -100.1528 259° West 344 396 41,000  Level Kansas City Center
09:10PM 38.8656 -100.2694 260° West 345 397 41,000  Level Kansas City Center
09:11PM 38.8436 -100.4047 258° West 347 399 41,000  Level Kansas City Center
09:12PM 38.8261 -100.5217 259° West 348 400 41,000  Level Kansas City Center
09:13PM 38.8053 -100.6572 259° West 349 402 41,000  Level Kansas City Center
09:14PM 38.7861 -100.7736 258° West 348 400 41,000  Level Kansas City Center
09:15PM 38.7553 -100.9700 259° West 353 406 41,000  Level Denver Center
09:17PM 38.7361 -101.0878 258° West 353 406 41,100 240 Climbing Denver Center
09:18PM 38.7181 -101.2056 259° West 352 405 41,600 540 Climbing Denver Center
09:19PM 38.6964 -101.3417 259° West 352 405 42,300 600 Climbing Denver Center
09:20PM 38.6778 -101.4550 258° West 344 396 42,900 300 Climbing Denver Center
09:21PM 38.6553 -101.5872 258° West 343 395 43,000  Climbing Denver Center
09:22PM 38.6372 -101.7028 259° West 345 397 43,000  Level Denver Center
09:23PM 38.6133 -101.8392 257° West 351 404 43,000  Level Denver Center
09:24PM 38.5939 -101.9567 258° West 354 407 43,000  Level Denver Center
09:25PM 38.5742 -102.0731 258° West 351 404 43,000  Level Denver Center
09:26PM 38.5514 -102.2103 258° West 354 407 43,000  Level Denver Center
09:27PM 38.5306 -102.3278 257° West 356 410 43,000  Level Denver Center
09:28PM 38.5075 -102.4647 258° West 355 409 43,000  Level Denver Center
09:29PM 38.4875 -102.5831 258° West 356 410 43,000  Level Denver Center
09:30PM 38.4622 -102.7228 257° West 361 415 43,000  Level Denver Center
09:31PM 38.4414 -102.8417 257° West 360 414 43,000  Level Denver Center
09:32PM 38.4172 -102.9817 258° West 362 417 43,000  Level Denver Center
09:33PM 38.3961 -103.1014 257° West 361 415 43,000  Level Denver Center
09:34PM 38.3678 -103.2592 257° West 356 410 43,000  Level Denver Center
09:35PM 38.3461 -103.3783 257° West 360 414 43,000  Level Denver Center
09:36PM 38.3231 -103.5058 257° West 363 418 43,000  Level Denver Center
09:37PM 38.2986 -103.6442 257° West 362 417 43,000  Level Denver Center
09:38PM 38.2767 -103.7642 257° West 364 419 43,000  Level Denver Center
09:39PM 38.2503 -103.9053 257° West 367 422 43,000  Level Denver Center
09:40PM 38.2278 -104.0250 257° West 366 421 43,000  Level Denver Center
09:41PM 38.2056 -104.1442 257° West 363 418 43,000  Level Denver Center
09:42PM 38.1794 -104.2842 257° West 367 422 43,000  Level Denver Center
09:43PM 38.1597 -104.3836 256° West 366 421 43,000  Level Denver Center
09:44PM 38.1292 -104.5450 257° West 369 425 43,000  Level Denver Center
09:46PM 38.1064 -104.6642 256° West 366 421 43,000  Level Denver Center
09:47PM 38.0792 -104.8042 256° West 367 422 43,000  Level Denver Center
09:52PM 37.9386 -105.5148 256° West 381 438 43,000  Level FlightAware ADS-B (KMTJ)
09:53PM 37.9243 -105.5857 256° West 379 436 43,000  Level FlightAware ADS-B (KMTJ)
09:53PM 37.9131 -105.6413 256° West 377 434 43,000  Level FlightAware ADS-B (KMTJ)
09:54PM 37.8983 -105.7137 256° West 377 434 43,000  Level FlightAware ADS-B (KMTJ)
09:54PM 37.8838 -105.7849 256° West 378 435 43,000  Level FlightAware ADS-B (KMTJ)
09:55PM 37.8699 -105.8537 256° West 378 435 43,000  Level FlightAware ADS-B (KMTJ)
09:55PM 37.8516 -105.9431 255° West 379 436 43,000  Level FlightAware ADS-B (KMTJ)
09:56PM 37.8405 -105.9969 255° West 378 435 43,000  Level FlightAware ADS-B (KMTJ)
09:58PM 37.7944 -106.2200 255° West 374 430 43,000  Level FlightAware ADS-B (KMTJ)
09:58PM 37.7781 -106.2983 255° West 374 430 43,000  Level FlightAware ADS-B (KMTJ)
09:59PM 37.7649 -106.3616 255° West 375 432 43,000  Level FlightAware ADS-B (KMTJ)
09:59PM 37.7503 -106.4313 255° West 376 433 43,000  Level FlightAware ADS-B (KMTJ)
10:00PM 37.7361 -106.4995 255° West 376 433 43,000  Level FlightAware ADS-B (KMTJ)
10:00PM 37.7218 -106.5671 255° West 379 436 43,000  Level FlightAware ADS-B (KMTJ)
10:01PM 37.7046 -106.6483 255° West 380 437 43,000  Level FlightAware ADS-B (KMTJ)
10:02PM 37.6872 -106.7302 255° West 383 441 43,000  Level FlightAware ADS-B (KMTJ)
10:02PM 37.6718 -106.8030 255° West 382 440 43,000  Level FlightAware ADS-B (KMTJ)
10:03PM 37.6562 -106.8751 255° West 383 441 43,000  Level FlightAware ADS-B (KMTJ)
10:03PM 37.6420 -106.9408 255° West 382 440 43,000  Level FlightAware ADS-B (KMTJ)
10:04PM 37.6305 -106.9942 255° West 385 443 43,000  Level FlightAware ADS-B (KMTJ)
10:04PM 37.6146 -107.0680 255° West 386 444 43,000  Level FlightAware ADS-B (KMTJ)
10:05PM 37.5988 -107.1410 255° West 385 443 43,000  Level FlightAware ADS-B (KMTJ)
10:05PM 37.5840 -107.2091 255° West 384 442 43,000  Level FlightAware ADS-B (KMTJ)
10:06PM 37.5695 -107.2755 255° West 382 440 43,000  Level FlightAware ADS-B (KMTJ)
10:06PM 37.5589 -107.3237 255° West 381 438 43,000  Level FlightAware ADS-B (KMTJ)
10:07PM 37.5400 -107.4099 255° West 382 440 43,000  Level FlightAware ADS-B (KMTJ)
10:07PM 37.5262 -107.4728 255° West 383 441 43,000  Level FlightAware ADS-B (KMTJ)
10:08PM 37.5113 -107.5405 255° West 383 441 43,000  Level FlightAware ADS-B (KMTJ)
10:09PM 37.4869 -107.6507 254° West 384 442 43,000  Level FlightAware ADS-B (KMTJ)
10:09PM 37.4719 -107.7186 254° West 385 443 43,000  Level FlightAware ADS-B (KMTJ)
10:10PM 37.4561 -107.7897 254° West 386 444 43,000  Level FlightAware ADS-B (KMTJ)
10:10PM 37.4420 -107.8532 254° West 387 445 43,000  Level FlightAware ADS-B (KMTJ)
10:11PM 37.4274 -107.9185 254° West 387 445 43,000  Level FlightAware ADS-B (KMTJ)
10:11PM 37.4121 -107.9874 254° West 388 447 43,000  Level FlightAware ADS-B (KMTJ)
10:12PM 37.3970 -108.0536 254° West 389 448 43,000  Level FlightAware ADS-B (KMTJ)
10:12PM 37.3771 -108.1424 254° West 389 448 43,000  Level FlightAware ADS-B (KMTJ)
10:13PM 37.3661 -108.1908 254° West 388 447 43,000  Level FlightAware ADS-B (KMTJ)
10:14PM 37.3579 -108.2263 254° West 388 447 43,000  Level FlightAware ADS-B (KMTJ)
10:14PM 37.3278 -108.3577 254° West 389 448 43,000  Level FlightAware ADS-B (KMTJ)
10:15PM 37.3097 -108.4372 254° West 387 445 43,000  Level FlightAware ADS-B (KMTJ)
10:15PM 37.2902 -108.5213 254° West 388 447 43,000  Level FlightAware ADS-B (KMTJ)
10:16PM 37.2756 -108.5845 254° West 391 450 43,000  Level FlightAware ADS-B (KMTJ)
10:16PM 37.2616 -108.6450 254° West 394 453 43,000  Level FlightAware ADS-B (KMTJ)
10:17PM 37.2385 -108.7442 254° West 399 459 43,000  Level FlightAware ADS-B (KMTJ)
10:18PM 37.2160 -108.8418 254° West 399 459 43,000  Level FlightAware ADS-B (KMTJ)
10:18PM 37.1989 -108.9149 254° West 399 459 43,000  Level FlightAware ADS-B (KMTJ)
10:19PM 37.1752 -109.0167 254° West 402 463 43,000  Level FlightAware ADS-B (KMTJ)
10:20PM 37.1572 -109.0931 254° West 403 464 43,000  Level FlightAware ADS-B (KMTJ)
10:20PM 37.1437 -109.1491 253° West 405 466 43,000  Level FlightAware ADS-B (KMTJ)
10:21PM 37.1309 -109.2030 253° West 409 471 43,000  Level FlightAware ADS-B (KMTJ)
10:22PM 37.0943 -109.3566 253° West 411 473 43,000  Level FlightAware ADS-B (KMTJ)
10:22PM 37.0716 -109.4519 253° West 412 474 43,000  Level FlightAware ADS-B (KMTJ)
10:23PM 37.0516 -109.5358 253° West 413 475 43,000  Level FlightAware ADS-B (KMTJ)
10:24PM 37.0403 -109.5823 253° West 414 476 43,000  Level FlightAware ADS-B (KMTJ)
10:25PM 36.9956 -109.7674 253° West 413 475 43,000  Level FlightAware ADS-B (KMTJ)
10:26PM 36.9628 -109.9033 253° West 413 475 43,000  Level FlightAware ADS-B (KMTJ)
10:26PM 36.9508 -109.9524 253° West 412 474 43,000  Level FlightAware ADS-B (KMTJ)
10:27PM 36.9207 -110.0739 253° West 412 474 43,000  Level FlightAware ADS-B (KMTJ)
10:28PM 36.9003 -110.1579 253° West 412 474 43,000  Level FlightAware ADS-B (KMTJ)
10:28PM 36.8799 -110.2391 253° West 413 475 43,000  Level FlightAware ADS-B (KMTJ)
10:29PM 36.8627 -110.3078 253° West 414 476 43,000  Level FlightAware ADS-B (KMTJ)
10:29PM 36.8413 -110.3941 253° West 416 479 43,000  Level FlightAware ADS-B (KMTJ)
10:30PM 36.8122 -110.5097 253° West 412 474 43,000  Level Denver Center
10:31PM 36.7769 -110.6492 253° West 420 483 43,000  Level Denver Center
10:32PM 36.7417 -110.7892 253° West 424 488 43,000  Level Denver Center
10:33PM 36.7053 -110.9314 252° West 429 494 43,000  Level Denver Center
10:34PM 36.6694 -111.0725 252° West 428 493 43,000  Level Denver Center
10:35PM 36.6342 -111.2147 253° West 429 494 43,000  Level Denver Center
10:37PM 36.5956 -111.3567 251° West 431 496 43,000  Level Denver Center
10:38PM 36.5406 -111.5506 251° West 425 489 43,000  Level Denver Center
10:39PM 36.4942 -111.6875 247° West 428 493 43,000  Level Denver Center
10:40PM 36.4503 -111.8250 248° West 428 493 43,000  Level Denver Center
10:41PM 36.4028 -111.9644 247° West 435 501 43,000  Level Los Angeles Center
10:42PM 36.3567 -112.1014 247° West 431 496 43,000  Level Los Angeles Center
10:48PM 36.2641 -112.3810 247° West 446 513 43,000  Level FlightAware ADS-B (KPRC)
10:49PM 36.0172 -113.1044 247° West 444 511 43,000  Level Los Angeles Center
10:50PM 35.9781 -113.2167 247° West 445 512 43,000  Level Los Angeles Center
10:51PM 35.9156 -113.3994 247° West 448 516 43,000  Level Los Angeles Center
10:52PM 35.8686 -113.5358 247° West 441 507 43,000  Level Los Angeles Center
10:53PM 35.8181 -113.6767 246° West 441 507 43,000  Level Los Angeles Center
10:54PM 35.7703 -113.8156 247° West 441 507 43,000  Level Los Angeles Center
10:55PM 35.7214 -113.9564 247° West 446 513 43,000  Level Los Angeles Center
10:56PM 35.6736 -114.0886 246° West 445 512 43,000 -480 Level Los Angeles Center
10:57PM 35.6247 -114.2272 247° West 445 512 42,100 -1,320 Descending Los Angeles Center
10:58PM 35.5714 -114.3736 246° West 444 511 40,400 -1,860 Descending Los Angeles Center
10:59PM 35.5100 -114.5431 246° West 452 520 38,300 -2,040 Descending Los Angeles Center
11:00PM 35.4597 -114.6842 246° West 451 519 36,300 -1,980 Descending Los Angeles Center
11:01PM 35.4075 -114.8269 246° West 455 524 34,300 -1,140 Descending Los Angeles Center
11:02PM 35.3553 -114.9714 246° West 461 531 34,000 -180 Descending Los Angeles Center
11:03PM 35.3031 -115.1136 246° West 459 528 34,000  Level Los Angeles Center
11:04PM 35.2492 -115.2567 245° Southwest 458 527 34,000  Level Los Angeles Center
11:05PM 35.2075 -115.3711 246° West 459 528 34,000 -600 Level Los Angeles Center
11:06PM 35.1519 -115.5225 246° West 465 535 32,800 -1,500 Descending Los Angeles Center
11:07PM 35.0858 -115.6994 246° West 475 547 31,000 -1,620 Descending Los Angeles Center
11:08PM 35.0292 -115.8492 245° Southwest 483 556 29,600 -1,380 Descending Los Angeles Center
11:09PM 34.9753 -115.9942 246° West 475 547 28,200 -1,380 Descending Los Angeles Center
11:10PM 34.9211 -116.1344 245° Southwest 461 531 26,800 -1,560 Descending Los Angeles Center
11:11PM 34.8583 -116.3033 246° West 457 526 25,100 -1,500 Descending Los Angeles Center
11:12PM 34.8069 -116.4442 246° West 456 525 23,700 -1,320 Descending Los Angeles Center
11:13PM 34.7847 -116.5889 259° West 435 501 22,500 -1,080 Descending Los Angeles Center
11:14PM 34.7708 -116.7383 264° West 442 509 21,500 -1,020 Descending Los Angeles Center
11:15PM 34.7561 -116.8864 263° West 441 507 20,500 -1,140 Descending Los Angeles Center
11:21PM 34.6615 -117.7083 263° West 397 457 13,800 -1,140 Descending FlightAware ADS-B
11:23PM 34.6361 -117.8819 263° West 392 451 12,300 -1,140 Descending Los Angeles Center
11:24PM 34.6183 -118.0061 260° West 375 432 11,100 -1,200 Descending Los Angeles Center
11:25PM 34.6019 -118.1142 260° West 327 376 9,900 -1,380 Descending Los Angeles Center
11:26PM 34.5861 -118.2267 260° West 310 357 8,300 -960 Descending Los Angeles Center
11:27PM 34.5708 -118.3283 260° West 307 353 8,000 -480 Descending Los Angeles Center
11:28PM 34.5403 -118.4239 249° West 314 361 7,400 -540 Descending Los Angeles Center
11:29PM 34.4889 -118.4931 228° Southwest 280 322 6,900 -720 Descending Los Angeles Center
11:30PM 34.4286 -118.5508 218° Southwest 278 320 6,000 -1,080 Descending Los Angeles Center
11:31PM 34.3592 -118.5922 206° Southwest 279 321 4,700 -900 Descending Los Angeles Center
11:32PM 34.2792 -118.6206 196° South 265 305 4,200 -540 Descending Los Angeles Center
11:33PM 34.2256 -118.6236 183° South 223 257 3,700 -660 Descending Los Angeles Center
11:34PM 34.1833 -118.5961 152° Southeast 190 219 2,900 -660 Descending Los Angeles Center
11:35PM 34.1608 -118.5517 121° Southeast 166 191 2,400 -660 Descending Los Angeles Center
11:36PM 34.1564 -118.5036 96° East 154 177 1,600 -600 Descending Los Angeles Center
11:37PM 34.1936 -118.4792 29° Northeast 147 169 1,200 -420 Descending Los Angeles Center